Time;durP1;ratioP1;P1;durP2;ratioP2;P2;SDS_P1;SDS_P2;PMS_P1;PMS_P2;Temp;Humidity;BMP_temperature;BMP_pressure;BME280_temperature;BME280_humidity;BME280_pressure;Samples;Min_cycle;Max_cycle;Signal;HPM_P1;HPM_P2
2022/07/30 00:02:12;;;;;;;0.00;0.00;;;17.60;81.60;;;;;;5050576;28;20163;-69
2022/07/30 00:04:38;;;;;;;0.00;0.00;;;17.60;81.50;;;;;;5033197;28;20052;-68
2022/07/30 00:07:04;;;;;;;0.00;0.00;;;17.60;81.40;;;;;;5049823;28;21903;-68
2022/07/30 00:09:29;;;;;;;0.00;0.00;;;17.60;81.40;;;;;;5050801;28;20120;-68
2022/07/30 00:11:55;;;;;;;0.00;0.00;;;17.60;81.20;;;;;;5032439;28;20041;-69
2022/07/30 00:14:21;;;;;;;0.00;0.00;;;17.60;81.40;;;;;;5016875;28;20080;-69
2022/07/30 00:16:46;;;;;;;0.00;0.00;;;17.60;81.50;;;;;;5032400;28;20490;-68
2022/07/30 00:19:12;;;;;;;0.00;0.00;;;17.60;81.50;;;;;;5050323;28;20037;-68
2022/07/30 00:21:38;;;;;;;0.00;0.00;;;17.60;81.40;;;;;;5050100;28;20098;-68
2022/07/30 00:24:04;;;;;;;0.00;0.00;;;17.50;81.50;;;;;;5049900;28;20460;-68
2022/07/30 00:26:30;;;;;;;0.00;0.00;;;17.60;81.20;;;;;;5050037;28;20068;-68
2022/07/30 00:28:55;;;;;;;0.00;0.00;;;17.50;81.00;;;;;;5049959;28;20466;-69
2022/07/30 00:31:21;;;;;;;0.00;0.00;;;17.50;81.00;;;;;;5050790;28;20069;-69
2022/07/30 00:33:47;;;;;;;0.00;0.00;;;17.50;81.00;;;;;;5050834;28;20452;-68
2022/07/30 00:36:12;;;;;;;0.00;0.00;;;17.40;80.80;;;;;;5051212;28;20048;-68
2022/07/30 00:38:38;;;;;;;0.00;0.00;;;17.40;81.00;;;;;;5032898;28;20051;-68
2022/07/30 00:41:03;;;;;;;0.00;0.00;;;17.40;81.00;;;;;;5049904;28;20052;-69
2022/07/30 00:43:29;;;;;;;0.00;0.00;;;17.30;80.80;;;;;;5049699;28;20076;-68
2022/07/30 00:45:54;;;;;;;0.00;0.00;;;17.30;80.80;;;;;;5050650;28;20051;-69
2022/07/30 00:48:20;;;;;;;0.00;0.00;;;17.30;80.50;;;;;;5049335;28;20049;-68
2022/07/30 00:50:46;;;;;;;0.00;0.00;;;17.30;80.50;;;;;;5050042;28;20049;-68
2022/07/30 00:53:11;;;;;;;0.00;0.00;;;17.30;80.50;;;;;;5049713;28;20041;-68
2022/07/30 00:55:37;;;;;;;0.00;0.00;;;17.20;80.50;;;;;;5049739;28;20044;-69
2022/07/30 00:58:02;;;;;;;0.00;0.00;;;17.20;80.40;;;;;;5049706;28;20200;-69
2022/07/30 01:00:28;;;;;;;0.00;0.00;;;17.20;80.30;;;;;;5048975;28;20064;-69
2022/07/30 01:02:54;;;;;;;0.00;0.00;;;17.20;80.70;;;;;;5029704;28;20049;-69
2022/07/30 01:05:19;;;;;;;0.00;0.00;;;17.20;80.60;;;;;;5049554;28;20524;-69
2022/07/30 01:07:45;;;;;;;0.00;0.00;;;17.10;80.40;;;;;;5048973;28;20087;-70
2022/07/30 01:10:14;;;;;;;0.00;0.00;;;17.10;80.30;;;;;;5049837;28;20036;-69
2022/07/30 01:12:41;;;;;;;0.00;0.00;;;17.10;80.30;;;;;;5049114;28;20033;-69
2022/07/30 01:15:09;;;;;;;0.00;0.00;;;17.10;80.60;;;;;;5031226;28;20052;-69
2022/07/30 01:17:35;;;;;;;0.00;0.00;;;17.00;80.60;;;;;;5049182;28;20044;-69
2022/07/30 01:20:14;;;;;;;0.00;0.00;;;17.10;80.90;;;;;;5049265;28;20080;-69
2022/07/30 01:22:50;;;;;;;0.00;0.00;;;17.00;80.80;;;;;;5048739;28;20505;-69
2022/07/30 01:25:29;;;;;;;0.00;0.00;;;17.00;81.30;;;;;;5047524;28;20493;-69
2022/07/30 01:28:07;;;;;;;0.00;0.00;;;16.90;81.10;;;;;;5049525;28;20041;-69
2022/07/30 01:30:43;;;;;;;0.00;0.00;;;16.90;80.80;;;;;;5048859;28;20381;-69
2022/07/30 01:33:15;;;;;;;0.00;0.00;;;16.80;80.60;;;;;;5030395;28;20084;-69
2022/07/30 01:35:43;;;;;;;0.00;0.00;;;16.60;81.20;;;;;;5048183;28;20521;-70
2022/07/30 01:38:11;;;;;;;0.00;0.00;;;16.50;81.40;;;;;;5048065;28;20087;-69
2022/07/30 01:40:38;;;;;;;0.00;0.00;;;16.40;82.20;;;;;;5048406;28;20406;-69
2022/07/30 01:43:05;;;;;;;0.00;0.00;;;16.30;82.60;;;;;;5031113;28;20481;-69
2022/07/30 01:45:31;;;;;;;0.00;0.00;;;16.10;82.50;;;;;;5030580;28;20099;-69
2022/07/30 01:47:59;;;;;;;0.00;0.00;;;16.00;83.40;;;;;;5046789;28;20494;-69
2022/07/30 01:50:27;;;;;;;0.00;0.00;;;15.90;84.60;;;;;;5056202;28;20032;-70
2022/07/30 01:52:55;;;;;;;0.00;0.00;;;15.90;84.20;;;;;;5051421;28;20090;-69
2022/07/30 01:55:30;;;;;;;0.00;0.00;;;15.80;85.30;;;;;;5048383;28;20417;-69
2022/07/30 01:57:57;;;;;;;0.00;0.00;;;15.80;85.30;;;;;;5049073;28;20048;-69
2022/07/30 02:00:25;;;;;;;0.00;0.00;;;15.70;85.00;;;;;;5047844;28;20596;-70
2022/07/30 02:02:51;;;;;;;0.00;0.00;;;15.80;85.30;;;;;;5014724;28;20055;-69
2022/07/30 02:05:17;;;;;;;0.00;0.00;;;15.80;85.20;;;;;;5030696;28;20044;-70
2022/07/30 02:07:56;;;;;;;0.00;0.00;;;15.80;85.20;;;;;;5048950;28;20103;-69
2022/07/30 02:10:49;;;;;;;0.00;0.00;;;15.70;86.30;;;;;;5048294;28;20037;-70
2022/07/30 02:13:20;;;;;;;0.05;0.05;;;15.70;86.90;;;;;;5047867;28;20071;-70
2022/07/30 02:15:55;;;;;;;0.10;0.10;;;15.60;87.50;;;;;;5048527;28;20041;-69
2022/07/30 02:18:37;;;;;;;0.00;0.00;;;15.70;87.60;;;;;;5048768;28;20048;-69
2022/07/30 02:21:05;;;;;;;0.10;0.10;;;15.60;87.70;;;;;;5048095;28;20409;-69
2022/07/30 02:23:37;;;;;;;0.00;0.00;;;15.60;88.20;;;;;;5048596;28;20037;-69
2022/07/30 02:26:04;;;;;;;0.00;0.00;;;15.60;88.50;;;;;;5048039;28;20037;-69
2022/07/30 02:28:33;;;;;;;0.00;0.00;;;15.60;88.50;;;;;;5014602;28;20036;-69
2022/07/30 02:31:00;;;;;;;0.00;0.00;;;15.60;88.60;;;;;;5048376;28;20045;-69
2022/07/30 02:33:30;;;;;;;0.00;0.00;;;15.60;88.60;;;;;;5048024;28;20052;-69
2022/07/30 02:35:57;;;;;;;0.00;0.00;;;15.60;88.90;;;;;;5048556;28;20037;-69
2022/07/30 02:38:26;;;;;;;0.05;0.05;;;15.50;89.60;;;;;;5048086;28;20086;-69
2022/07/30 02:40:54;;;;;;;0.00;0.00;;;15.50;89.70;;;;;;5048309;28;20052;-69
2022/07/30 02:43:23;;;;;;;0.70;0.50;;;15.50;89.70;;;;;;5048234;28;20056;-69
2022/07/30 02:45:49;;;;;;;0.00;0.00;;;15.60;90.10;;;;;;5048545;28;20064;-70
2022/07/30 02:48:16;;;;;;;0.00;0.00;;;15.60;90.10;;;;;;5048306;28;20045;-69
2022/07/30 02:50:43;;;;;;;0.00;0.00;;;15.60;90.20;;;;;;5040835;28;20115;-70
2022/07/30 02:53:13;;;;;;;0.00;0.00;;;15.60;90.30;;;;;;5048340;28;20128;-69
2022/07/30 02:55:41;;;;;;;0.00;0.00;;;15.60;90.40;;;;;;5047827;28;20409;-69
2022/07/30 02:58:07;;;;;;;0.00;0.00;;;15.60;90.30;;;;;;5047518;28;20029;-69
2022/07/30 03:00:34;;;;;;;0.00;0.00;;;15.60;90.30;;;;;;5048303;28;20049;-70
2022/07/30 03:03:03;;;;;;;0.00;0.00;;;15.60;90.30;;;;;;5048556;28;20501;-70
2022/07/30 03:05:29;;;;;;;0.00;0.00;;;15.70;90.30;;;;;;5052502;28;20076;-69
2022/07/30 03:07:57;;;;;;;0.00;0.00;;;15.70;90.30;;;;;;5034369;28;20041;-69
2022/07/30 03:10:25;;;;;;;0.00;0.00;;;15.80;90.50;;;;;;5051379;28;20127;-70
2022/07/30 03:12:51;;;;;;;0.10;0.10;;;15.80;90.70;;;;;;5051110;28;20155;-70
2022/07/30 03:15:17;;;;;;;0.00;0.00;;;15.80;90.70;;;;;;5051755;28;20033;-69
2022/07/30 03:17:45;;;;;;;0.00;0.00;;;15.90;90.70;;;;;;5051809;28;20051;-69
2022/07/30 03:20:14;;;;;;;0.00;0.00;;;15.90;90.70;;;;;;5051142;28;20041;-69
2022/07/30 03:22:43;;;;;;;0.00;0.00;;;15.90;90.80;;;;;;5050890;28;20041;-69
2022/07/30 03:25:13;;;;;;;0.00;0.00;;;16.00;90.70;;;;;;5051620;28;20755;-69
2022/07/30 03:27:39;;;;;;;0.00;0.00;;;16.00;90.70;;;;;;5033892;28;20510;-69
2022/07/30 03:30:06;;;;;;;0.00;0.00;;;16.00;90.60;;;;;;5032741;28;20053;-69
2022/07/30 03:32:33;;;;;;;0.00;0.00;;;16.00;90.50;;;;;;5050725;28;20725;-69
2022/07/30 03:35:00;;;;;;;0.00;0.00;;;16.00;90.60;;;;;;5051498;28;20045;-69
2022/07/30 03:37:26;;;;;;;0.00;0.00;;;16.00;90.70;;;;;;5051469;28;20088;-69
2022/07/30 03:39:53;;;;;;;0.00;0.00;;;16.10;91.10;;;;;;5050602;28;20086;-69
2022/07/30 03:42:20;;;;;;;0.00;0.00;;;16.00;91.20;;;;;;5032645;28;20197;-69
2022/07/30 03:44:46;;;;;;;0.00;0.00;;;16.00;91.10;;;;;;5051585;28;20071;-70
2022/07/30 03:47:14;;;;;;;0.00;0.00;;;16.00;91.10;;;;;;5050974;28;20524;-70
2022/07/30 03:49:40;;;;;;;0.00;0.00;;;16.10;90.90;;;;;;5050876;28;20055;-70
2022/07/30 03:52:06;;;;;;;0.00;0.00;;;16.10;91.10;;;;;;5050443;28;20461;-69
2022/07/30 03:54:32;;;;;;;0.00;0.00;;;16.00;91.00;;;;;;5051126;28;20045;-69
2022/07/30 03:57:03;;;;;;;0.00;0.00;;;16.10;90.80;;;;;;5038677;28;20045;-70
2022/07/30 03:59:29;;;;;;;0.00;0.00;;;16.10;90.90;;;;;;5032072;28;20053;-69
2022/07/30 04:02:02;;;;;;;0.00;0.00;;;16.00;90.80;;;;;;5049825;28;20048;-69
2022/07/30 04:04:29;;;;;;;0.00;0.00;;;16.00;91.00;;;;;;5050778;28;20095;-70
2022/07/30 04:06:57;;;;;;;0.00;0.00;;;16.00;90.90;;;;;;5050799;28;20136;-70
2022/07/30 04:09:23;;;;;;;0.00;0.00;;;16.00;90.80;;;;;;5050137;28;20048;-70
2022/07/30 04:11:49;;;;;;;0.00;0.00;;;16.00;90.80;;;;;;5032321;28;20037;-69
2022/07/30 04:14:16;;;;;;;0.00;0.00;;;16.00;90.70;;;;;;5050398;28;20490;-69
2022/07/30 04:17:00;;;;;;;0.00;0.00;;;16.00;90.80;;;;;;5049732;28;20048;-69
2022/07/30 04:19:37;;;;;;;0.10;0.10;;;16.00;90.90;;;;;;5050928;28;20132;-70
2022/07/30 04:22:04;;;;;;;0.10;0.10;;;16.00;90.90;;;;;;5050004;28;20051;-69
2022/07/30 04:24:31;;;;;;;0.00;0.00;;;16.00;90.90;;;;;;5050178;28;20513;-70
2022/07/30 04:26:59;;;;;;;0.00;0.00;;;16.00;90.90;;;;;;5050509;28;20099;-70
2022/07/30 04:29:24;;;;;;;0.00;0.00;;;16.00;91.00;;;;;;5050392;28;20048;-69
2022/07/30 04:31:54;;;;;;;0.30;0.30;;;16.00;91.40;;;;;;5049800;28;20040;-69
2022/07/30 04:34:21;;;;;;;0.00;0.00;;;16.00;91.30;;;;;;5050580;28;20176;-70
2022/07/30 04:36:47;;;;;;;0.00;0.00;;;16.00;91.10;;;;;;5049843;28;20037;-70
2022/07/30 04:39:12;;;;;;;0.00;0.00;;;16.00;91.10;;;;;;5050313;28;20067;-69
2022/07/30 04:41:38;;;;;;;0.00;0.00;;;16.00;91.10;;;;;;5049217;28;21060;-69
2022/07/30 04:44:04;;;;;;;0.10;0.10;;;16.00;90.80;;;;;;5053267;22;20058;-69
2022/07/30 04:46:30;;;;;;;0.00;0.00;;;16.00;90.80;;;;;;5027851;28;20052;-69
2022/07/30 04:48:56;;;;;;;0.00;0.00;;;16.00;90.80;;;;;;5028109;28;20065;-69
2022/07/30 04:51:31;;;;;;;0.00;0.00;;;16.00;90.80;;;;;;5030744;28;20045;-69
2022/07/30 04:53:58;;;;;;;0.00;0.00;;;16.00;90.80;;;;;;5030799;28;20037;-70
2022/07/30 04:56:25;;;;;;;0.00;0.00;;;16.00;90.70;;;;;;5029838;28;20049;-70
2022/07/30 04:58:51;;;;;;;0.00;0.00;;;16.00;90.80;;;;;;5029887;28;20045;-69
2022/07/30 05:01:26;;;;;;;0.00;0.00;;;16.00;90.80;;;;;;5028983;28;20045;-69
2022/07/30 05:03:52;;;;;;;0.00;0.00;;;16.00;90.90;;;;;;5026515;28;20038;-69
2022/07/30 05:06:19;;;;;;;0.00;0.00;;;16.10;91.00;;;;;;5028796;28;20536;-70
2022/07/30 05:08:45;;;;;;;0.00;0.00;;;16.00;91.60;;;;;;5029302;28;20046;-69
2022/07/30 05:11:14;;;;;;;0.00;0.00;;;16.10;91.70;;;;;;5029427;28;20060;-70
2022/07/30 05:13:44;;;;;;;0.00;0.00;;;16.10;91.70;;;;;;5029737;28;20103;-69
2022/07/30 05:16:10;;;;;;;0.00;0.00;;;16.10;91.90;;;;;;5027847;28;20069;-70
2022/07/30 05:18:36;;;;;;;0.00;0.00;;;16.20;92.10;;;;;;5028297;28;20457;-69
2022/07/30 05:21:03;;;;;;;0.00;0.00;;;16.20;92.30;;;;;;5024758;28;20129;-71
2022/07/30 05:23:28;;;;;;;0.00;0.00;;;16.30;92.30;;;;;;5028980;28;20053;-68
2022/07/30 05:25:54;;;;;;;0.10;0.10;;;16.30;92.40;;;;;;5028085;28;20042;-69
2022/07/30 05:28:21;;;;;;;0.08;0.08;;;16.40;92.50;;;;;;5029619;28;20458;-69
2022/07/30 05:30:47;;;;;;;0.00;0.00;;;16.40;92.50;;;;;;5029123;28;20446;-69
2022/07/30 05:33:13;;;;;;;0.00;0.00;;;16.40;92.50;;;;;;5029077;28;20053;-70
2022/07/30 05:35:39;;;;;;;0.00;0.00;;;16.50;92.50;;;;;;5028160;28;20124;-69
2022/07/30 05:38:04;;;;;;;0.00;0.00;;;16.60;92.60;;;;;;5029391;28;20152;-69
2022/07/30 05:40:30;;;;;;;0.00;0.00;;;16.60;92.50;;;;;;5029159;28;20530;-69
2022/07/30 05:42:56;;;;;;;0.00;0.00;;;16.60;92.40;;;;;;5027931;28;20099;-69
2022/07/30 05:45:21;;;;;;;0.00;0.00;;;16.70;92.50;;;;;;5028512;28;20071;-69
2022/07/30 05:47:47;;;;;;;0.00;0.00;;;16.80;92.40;;;;;;5028525;28;20048;-69
2022/07/30 05:50:13;;;;;;;0.20;0.20;;;16.80;92.60;;;;;;5029039;28;20701;-69
2022/07/30 05:52:38;;;;;;;0.10;0.10;;;16.90;92.60;;;;;;5024882;28;20124;-68
2022/07/30 05:55:04;;;;;;;0.00;0.00;;;17.00;92.50;;;;;;5028937;28;20042;-69
2022/07/30 05:57:30;;;;;;;0.00;0.00;;;17.00;92.50;;;;;;5028970;28;20088;-69
2022/07/30 05:59:56;;;;;;;1.08;0.80;;;17.10;92.40;;;;;;5026417;28;20049;-69
2022/07/30 06:02:21;;;;;;;0.05;0.05;;;17.10;92.30;;;;;;5028447;28;20037;-69
2022/07/30 06:04:47;;;;;;;11.80;0.90;;;17.10;92.30;;;;;;5028801;28;20038;-68
2022/07/30 06:07:12;;;;;;;0.00;0.00;;;17.10;92.10;;;;;;5024831;28;20065;-70
2022/07/30 06:09:38;;;;;;;1.45;0.30;;;17.20;92.10;;;;;;5027254;28;20049;-70
2022/07/30 06:12:04;;;;;;;0.00;0.00;;;17.30;91.90;;;;;;5027089;28;20037;-70
2022/07/30 06:14:30;;;;;;;0.00;0.00;;;17.30;91.80;;;;;;5027754;28;20053;-70
2022/07/30 06:16:56;;;;;;;0.00;0.00;;;17.40;91.70;;;;;;5027486;28;20145;-69
2022/07/30 06:19:22;;;;;;;0.00;0.00;;;17.50;91.50;;;;;;5027097;28;20057;-69
2022/07/30 06:21:47;;;;;;;0.03;0.03;;;17.60;91.40;;;;;;5027548;28;20477;-70
2022/07/30 06:24:13;;;;;;;0.00;0.00;;;17.60;90.90;;;;;;5009956;28;20039;-68
2022/07/30 06:26:39;;;;;;;0.00;0.00;;;17.60;90.90;;;;;;5026142;28;20038;-67
2022/07/30 06:29:05;;;;;;;0.00;0.00;;;17.70;90.50;;;;;;5026895;28;20084;-71
2022/07/30 06:31:30;;;;;;;0.00;0.00;;;17.70;90.40;;;;;;5027826;28;20441;-71
2022/07/30 06:33:56;;;;;;;0.00;0.00;;;17.80;90.30;;;;;;5027633;28;20076;-71
2022/07/30 06:36:22;;;;;;;0.00;0.00;;;17.80;90.10;;;;;;5028131;28;20051;-71
2022/07/30 06:38:47;;;;;;;0.00;0.00;;;17.90;90.10;;;;;;5029654;28;20076;-71
2022/07/30 06:41:14;;;;;;;0.00;0.00;;;18.00;89.90;;;;;;5032022;28;20064;-71
2022/07/30 06:43:40;;;;;;;0.10;0.10;;;18.10;89.80;;;;;;5032231;28;20116;-71
2022/07/30 06:46:06;;;;;;;0.03;0.03;;;18.20;89.60;;;;;;5031115;28;20857;-70
2022/07/30 06:48:31;;;;;;;0.00;0.00;;;18.20;89.00;;;;;;5032238;28;20049;-71
2022/07/30 06:50:57;;;;;;;0.00;0.00;;;18.30;88.70;;;;;;5031078;28;20060;-70
2022/07/30 06:53:23;;;;;;;0.00;0.00;;;18.30;86.70;;;;;;5030151;28;20037;-71
2022/07/30 06:55:49;;;;;;;0.00;0.00;;;18.40;86.90;;;;;;5030406;28;20498;-70
2022/07/30 06:58:15;;;;;;;0.00;0.00;;;18.40;86.60;;;;;;5032017;28;20086;-70
2022/07/30 07:00:43;;;;;;;0.00;0.00;;;18.40;86.10;;;;;;5025661;28;20054;-71
2022/07/30 07:03:09;;;;;;;0.00;0.00;;;18.30;85.60;;;;;;5026484;28;20072;-71
2022/07/30 07:05:35;;;;;;;0.00;0.00;;;18.30;84.90;;;;;;5030185;28;20495;-70
2022/07/30 07:08:00;;;;;;;0.43;0.43;;;18.30;84.90;;;;;;5031652;28;20033;-69
2022/07/30 07:10:26;;;;;;;0.00;0.00;;;18.30;84.80;;;;;;5030767;28;20049;-70
2022/07/30 07:12:52;;;;;;;0.00;0.00;;;18.30;85.00;;;;;;5031214;28;20129;-69
2022/07/30 07:15:18;;;;;;;0.00;0.00;;;18.40;84.90;;;;;;5018566;28;20489;-69
2022/07/30 07:17:43;;;;;;;0.00;0.00;;;18.40;84.90;;;;;;5025371;28;20125;-69
2022/07/30 07:20:09;;;;;;;0.00;0.00;;;18.50;84.80;;;;;;5025173;28;20049;-69
2022/07/30 07:22:35;;;;;;;0.00;0.00;;;18.50;83.30;;;;;;5023543;28;20084;-69
2022/07/30 07:25:01;;;;;;;0.00;0.00;;;18.50;82.60;;;;;;5028831;28;20461;-70
2022/07/30 07:27:26;;;;;;;0.00;0.00;;;18.50;82.20;;;;;;5026909;28;20779;-70
2022/07/30 07:29:52;;;;;;;0.10;0.10;;;18.40;82.20;;;;;;5030194;28;20045;-68
2022/07/30 07:32:17;;;;;;;0.00;0.00;;;18.50;82.70;;;;;;5028117;28;20046;-69
2022/07/30 07:34:43;;;;;;;0.00;0.00;;;18.50;82.10;;;;;;5026368;28;20152;-69
2022/07/30 07:37:09;;;;;;;0.25;0.25;;;18.60;81.70;;;;;;5016910;28;20080;-69
2022/07/30 07:39:34;;;;;;;0.00;0.00;;;18.60;81.60;;;;;;5001395;28;20057;-69
2022/07/30 07:42:00;;;;;;;0.00;0.00;;;18.70;81.50;;;;;;5028795;28;20037;-69
2022/07/30 07:44:25;;;;;;;0.00;0.00;;;18.80;81.70;;;;;;5030229;28;20820;-69
2022/07/30 07:46:51;;;;;;;0.00;0.00;;;18.90;80.50;;;;;;5013209;28;20099;-69
2022/07/30 07:49:16;;;;;;;0.10;0.10;;;18.90;79.40;;;;;;5027399;28;20057;-69
2022/07/30 07:51:42;;;;;;;0.00;0.00;;;18.90;78.20;;;;;;5029813;28;20618;-69
2022/07/30 07:54:08;;;;;;;0.15;0.15;;;18.80;77.50;;;;;;5030303;28;20041;-69
2022/07/30 07:56:33;;;;;;;0.68;0.68;;;18.80;77.90;;;;;;5028027;28;20140;-68
2022/07/30 07:58:59;;;;;;;0.00;0.00;;;18.90;78.20;;;;;;5027670;28;20034;-69
2022/07/30 08:01:24;;;;;;;0.03;0.03;;;19.00;75.20;;;;;;5029195;28;20061;-69
2022/07/30 08:03:50;;;;;;;0.00;0.00;;;19.00;76.30;;;;;;5029410;28;20063;-69
2022/07/30 08:06:15;;;;;;;0.10;0.10;;;19.00;75.50;;;;;;5025230;28;20396;-67
2022/07/30 08:08:41;;;;;;;0.00;0.00;;;18.90;74.80;;;;;;5017465;28;20087;-70
2022/07/30 08:11:07;;;;;;;0.63;0.63;;;19.00;74.70;;;;;;5029239;28;20061;-70
2022/07/30 08:13:32;;;;;;;0.00;0.00;;;19.00;75.20;;;;;;5028649;28;20046;-70
2022/07/30 08:16:00;;;;;;;0.10;0.10;;;19.10;74.40;;;;;;5039435;28;20555;-70
2022/07/30 08:18:26;;;;;;;0.00;0.00;;;19.20;72.80;;;;;;5048669;28;20048;-70
2022/07/30 08:20:51;;;;;;;0.00;0.00;;;19.20;73.60;;;;;;5010731;28;20057;-71
2022/07/30 08:23:18;;;;;;;0.00;0.00;;;19.30;74.50;;;;;;5027714;28;20510;-70
2022/07/30 08:25:44;;;;;;;0.08;0.08;;;19.50;75.30;;;;;;5030306;28;20092;-70
2022/07/30 08:28:09;;;;;;;0.08;0.08;;;19.60;75.10;;;;;;5022364;28;20083;-70
2022/07/30 08:30:35;;;;;;;0.00;0.00;;;19.60;73.80;;;;;;5012766;28;20502;-70
2022/07/30 08:33:01;;;;;;;0.00;0.00;;;19.50;74.20;;;;;;5027070;28;20038;-68
2022/07/30 08:35:27;;;;;;;0.52;0.38;;;19.50;73.70;;;;;;5029877;28;20057;-68
2022/07/30 08:37:53;;;;;;;0.00;0.00;;;19.50;73.70;;;;;;5029792;28;20131;-69
2022/07/30 08:40:19;;;;;;;0.00;0.00;;;19.50;74.10;;;;;;5029717;28;20410;-69
2022/07/30 08:42:45;;;;;;;0.00;0.00;;;19.50;73.30;;;;;;5028345;28;20096;-68
2022/07/30 08:45:12;;;;;;;0.20;0.20;;;19.60;73.10;;;;;;5028282;28;20584;-68
2022/07/30 08:47:40;;;;;;;0.00;0.00;;;19.50;71.20;;;;;;5027400;28;20175;-68
2022/07/30 08:50:07;;;;;;;0.00;0.00;;;19.60;71.90;;;;;;5028024;28;20057;-69
2022/07/30 08:52:35;;;;;;;0.00;0.00;;;19.60;71.70;;;;;;5029480;28;20541;-66
2022/07/30 08:55:03;;;;;;;0.00;0.00;;;19.70;70.90;;;;;;5028228;28;20057;-69
2022/07/30 08:57:30;;;;;;;0.00;0.00;;;19.80;71.80;;;;;;5027789;28;20064;-68
2022/07/30 08:59:57;;;;;;;0.00;0.00;;;19.80;71.10;;;;;;5027955;28;20045;-67
2022/07/30 09:02:22;;;;;;;0.00;0.00;;;19.90;70.70;;;;;;5029675;28;20050;-68
2022/07/30 09:04:48;;;;;;;0.00;0.00;;;20.00;70.80;;;;;;5029006;28;20047;-67
2022/07/30 09:07:13;;;;;;;0.00;0.00;;;20.10;72.40;;;;;;5029438;28;20046;-68
2022/07/30 09:09:42;;;;;;;0.00;0.00;;;20.10;71.00;;;;;;5030119;28;20461;-68
2022/07/30 09:12:33;;;;;;;0.00;0.00;;;20.10;70.80;;;;;;5030162;28;20052;-68
2022/07/30 09:15:25;;;;;;;0.13;0.13;;;20.00;70.30;;;;;;5013798;28;20491;-68
2022/07/30 09:17:55;;;;;;;0.00;0.00;;;20.10;70.60;;;;;;5013913;28;20084;-68
2022/07/30 09:20:24;;;;;;;0.03;0.03;;;20.10;70.40;;;;;;5030026;28;20056;-68
2022/07/30 09:22:53;;;;;;;0.35;0.35;;;20.10;70.90;;;;;;5029149;28;20091;-61
2022/07/30 09:25:39;;;;;;;0.00;0.00;;;20.20;70.70;;;;;;5049503;28;20037;-62
2022/07/30 09:28:08;;;;;;;0.00;0.00;;;20.40;71.00;;;;;;5041042;28;20454;-68
2022/07/30 09:30:52;;;;;;;0.30;0.30;;;20.50;69.80;;;;;;5029279;28;20095;-69
2022/07/30 09:33:37;;;;;;;0.00;0.00;;;20.40;68.50;;;;;;5008782;28;20390;-68
2022/07/30 09:36:05;;;;;;;0.00;0.00;;;20.30;69.20;;;;;;5030477;28;20053;-68
2022/07/30 09:38:51;;;;;;;0.00;0.00;;;20.30;68.20;;;;;;5025975;28;20045;-68
2022/07/30 09:41:21;;;;;;;0.00;0.00;;;20.40;69.10;;;;;;5024339;28;20045;-68
2022/07/30 09:43:51;;;;;;;0.00;0.00;;;20.50;69.30;;;;;;5027161;28;20083;-68
2022/07/30 09:46:17;;;;;;;0.00;0.00;;;20.50;68.70;;;;;;5027664;28;20138;-67
2022/07/30 09:48:45;;;;;;;0.00;0.00;;;20.60;68.80;;;;;;5027689;28;20817;-70
2022/07/30 09:51:12;;;;;;;0.90;0.75;;;20.60;67.60;;;;;;5028883;28;20507;-70
2022/07/30 09:53:57;;;;;;;0.00;0.00;;;20.50;67.90;;;;;;5028445;28;20152;-70
2022/07/30 09:56:28;;;;;;;0.00;0.00;;;20.50;67.90;;;;;;5029508;28;20045;-70
2022/07/30 09:58:54;;;;;;;0.00;0.00;;;20.50;68.60;;;;;;5027698;28;20489;-72
2022/07/30 10:01:20;;;;;;;0.00;0.00;;;20.60;67.20;;;;;;5025628;28;20037;-70
2022/07/30 10:03:46;;;;;;;0.00;0.00;;;20.60;68.00;;;;;;5029113;28;20384;-70
2022/07/30 10:06:12;;;;;;;6.93;1.55;;;20.60;67.90;;;;;;5028902;28;20430;-70
2022/07/30 10:08:42;;;;;;;0.30;0.30;;;20.60;69.10;;;;;;5026596;28;20041;-70
2022/07/30 10:11:14;;;;;;;0.00;0.00;;;20.70;69.20;;;;;;5028108;28;20115;-70
2022/07/30 10:13:41;;;;;;;0.10;0.10;;;20.70;68.70;;;;;;5028140;28;20053;-70
2022/07/30 10:16:07;;;;;;;1.55;1.45;;;20.60;67.30;;;;;;5033475;28;20030;-70
2022/07/30 10:18:34;;;;;;;0.10;0.10;;;20.80;68.30;;;;;;5032876;28;20437;-70
2022/07/30 10:21:02;;;;;;;0.00;0.00;;;20.80;68.00;;;;;;5028866;28;20517;-71
2022/07/30 10:23:29;;;;;;;0.00;0.00;;;20.70;68.70;;;;;;5033367;28;20041;-70
2022/07/30 10:26:01;;;;;;;0.45;0.45;;;20.60;68.60;;;;;;5027054;28;20056;-70
2022/07/30 10:28:29;;;;;;;0.00;0.00;;;20.70;68.90;;;;;;5030577;28;20506;-69
2022/07/30 10:30:56;;;;;;;0.00;0.00;;;20.80;68.70;;;;;;5021702;28;20118;-69
2022/07/30 10:33:24;;;;;;;0.32;0.32;;;20.80;67.90;;;;;;5028518;28;20103;-70
2022/07/30 10:35:50;;;;;;;0.00;0.00;;;20.80;68.10;;;;;;5032334;28;20049;-69
2022/07/30 10:38:18;;;;;;;0.00;0.00;;;20.90;67.70;;;;;;5029929;28;20053;-69
2022/07/30 10:40:57;;;;;;;0.20;0.20;;;21.00;67.30;;;;;;5031318;28;20084;-69
2022/07/30 10:43:44;;;;;;;0.00;0.00;;;21.00;66.10;;;;;;5030879;28;20128;-70
2022/07/30 10:46:27;;;;;;;0.00;0.00;;;21.10;66.50;;;;;;5030678;28;20462;-70
2022/07/30 10:48:54;;;;;;;0.00;0.00;;;21.20;66.40;;;;;;5032548;28;20045;-70
2022/07/30 10:51:21;;;;;;;0.00;0.00;;;21.30;66.80;;;;;;5032546;28;20041;-71
2022/07/30 10:53:47;;;;;;;0.08;0.08;;;21.30;65.50;;;;;;5032815;28;20057;-70
2022/07/30 10:56:20;;;;;;;0.00;0.00;;;21.30;65.40;;;;;;5032896;28;20049;-70
2022/07/30 10:59:05;;;;;;;0.00;0.00;;;21.30;65.20;;;;;;5032497;28;20037;-70
2022/07/30 11:01:46;;;;;;;0.00;0.00;;;21.30;65.40;;;;;;5031755;28;20496;-70
2022/07/30 11:04:23;;;;;;;0.00;0.00;;;21.50;64.90;;;;;;5032663;28;20049;-70
2022/07/30 11:06:49;;;;;;;0.00;0.00;;;21.40;64.30;;;;;;5031416;28;20045;-70
2022/07/30 11:09:38;;;;;;;0.10;0.10;;;21.40;62.40;;;;;;5031176;28;20103;-70
2022/07/30 11:12:08;;;;;;;0.00;0.00;;;21.40;64.10;;;;;;5032097;28;20030;-70
2022/07/30 11:14:45;;;;;;;0.10;0.10;;;21.50;63.00;;;;;;5032256;28;20482;-70
2022/07/30 11:17:16;;;;;;;0.00;0.00;;;21.50;63.10;;;;;;5032343;28;20521;-70
2022/07/30 11:20:04;;;;;;;0.00;0.00;;;21.50;63.10;;;;;;5032158;28;20096;-70
2022/07/30 11:22:37;;;;;;;0.00;0.00;;;21.50;62.00;;;;;;5031818;28;20053;-70
2022/07/30 11:25:08;;;;;;;0.00;0.00;;;21.50;61.40;;;;;;5031283;28;20041;-70
2022/07/30 11:27:39;;;;;;;0.00;0.00;;;21.50;61.60;;;;;;5032163;28;20041;-70
2022/07/30 11:30:28;;;;;;;0.00;0.00;;;21.40;61.40;;;;;;5031083;28;20295;-70
2022/07/30 11:33:02;;;;;;;0.00;0.00;;;21.50;63.10;;;;;;5031201;28;20041;-71
2022/07/30 11:35:29;;;;;;;0.00;0.00;;;21.50;62.90;;;;;;5011885;28;20108;-70
2022/07/30 11:37:59;;;;;;;0.35;0.35;;;21.60;61.10;;;;;;5012185;28;20048;-70
2022/07/30 11:40:27;;;;;;;0.00;0.00;;;21.60;60.70;;;;;;5012091;28;20046;-70
2022/07/30 11:43:17;;;;;;;0.00;0.00;;;21.70;60.70;;;;;;5012076;28;20117;-70
2022/07/30 11:45:46;;;;;;;0.00;0.00;;;21.80;62.20;;;;;;5021975;28;20061;-72
2022/07/30 11:48:14;;;;;;;0.43;0.35;;;21.80;61.70;;;;;;5027703;28;20068;-72
2022/07/30 11:50:41;;;;;;;0.00;0.00;;;21.80;60.90;;;;;;5028367;28;20056;-72
2022/07/30 11:53:09;;;;;;;0.00;0.00;;;21.90;62.40;;;;;;5023412;28;20140;-72
2022/07/30 11:55:37;;;;;;;0.00;0.00;;;22.00;60.70;;;;;;5026988;28;20049;-72
2022/07/30 11:58:06;;;;;;;0.00;0.00;;;22.00;60.10;;;;;;5026302;28;20057;-72
2022/07/30 12:00:35;;;;;;;0.00;0.00;;;22.10;59.50;;;;;;5028462;28;20127;-71
2022/07/30 12:03:07;;;;;;;0.00;0.00;;;22.30;60.50;;;;;;5018484;28;20472;-71
2022/07/30 12:05:33;;;;;;;0.00;0.00;;;22.50;60.80;;;;;;5026862;28;20037;-71
2022/07/30 12:07:59;;;;;;;0.00;0.00;;;22.50;57.90;;;;;;5029909;28;20164;-71
2022/07/30 12:10:25;;;;;;;0.00;0.00;;;22.50;58.10;;;;;;5030604;28;20080;-72
2022/07/30 12:12:50;;;;;;;0.00;0.00;;;22.30;57.70;;;;;;5030280;28;20050;-72
2022/07/30 12:15:30;;;;;;;0.00;0.00;;;22.20;56.10;;;;;;5018187;28;20037;-71
2022/07/30 12:17:56;;;;;;;0.00;0.00;;;22.20;57.10;;;;;;5030339;28;20518;-71
2022/07/30 12:20:22;;;;;;;0.00;0.00;;;22.10;57.10;;;;;;5029759;28;20072;-71
2022/07/30 12:22:48;;;;;;;0.03;0.03;;;22.20;57.90;;;;;;5024835;28;20050;-71
2022/07/30 12:25:14;;;;;;;0.00;0.00;;;22.30;57.60;;;;;;5027112;28;20045;-70
2022/07/30 12:27:45;;;;;;;0.10;0.10;;;22.30;57.20;;;;;;5030386;28;20147;-70
2022/07/30 12:30:11;;;;;;;0.00;0.00;;;22.30;56.40;;;;;;5030456;28;20096;-71
2022/07/30 12:32:37;;;;;;;0.00;0.00;;;22.20;57.50;;;;;;5029974;28;20057;-72
2022/07/30 12:35:03;;;;;;;0.08;0.08;;;22.20;56.90;;;;;;5030017;28;20045;-72
2022/07/30 12:37:28;;;;;;;0.00;0.00;;;22.20;57.40;;;;;;5027416;28;20142;-71
2022/07/30 12:40:12;;;;;;;0.00;0.00;;;22.20;58.00;;;;;;5028171;28;20095;-71
2022/07/30 12:42:55;;;;;;;0.00;0.00;;;22.20;57.90;;;;;;5024955;28;20053;-71
2022/07/30 12:45:26;;;;;;;0.00;0.00;;;22.30;56.90;;;;;;5024806;28;20050;-71
2022/07/30 12:47:52;;;;;;;0.00;0.00;;;22.30;55.10;;;;;;5023375;28;20107;-71
2022/07/30 12:50:17;;;;;;;0.10;0.10;;;22.20;55.70;;;;;;5021740;28;20071;-71
2022/07/30 12:52:47;;;;;;;0.00;0.00;;;22.20;55.80;;;;;;5024970;28;20064;-71
2022/07/30 12:55:13;;;;;;;0.00;0.00;;;22.50;57.30;;;;;;5029479;28;20053;-72